Time;durP1;ratioP1;P1;durP2;ratioP2;P2;SDS_P1;SDS_P2;PMS_P1;PMS_P2;Temp;Humidity;BMP_temperature;BMP_pressure;BME280_temperature;BME280_humidity;BME280_pressure;Samples;Min_cycle;Max_cycle;Signal;HPM_P1;HPM_P2
2023/10/02 00:02:06;;;;;;;15.63;10.07;;;;;;;16.68;83.25;99390.13;5091561;28;20016;-44
2023/10/02 00:04:34;;;;;;;18.00;9.65;;;;;;;16.67;82.87;99388.50;5091736;28;20439;-44
2023/10/02 00:07:06;;;;;;;18.60;9.77;;;;;;;16.74;82.69;99384.75;5091478;28;20016;-44
2023/10/02 00:09:34;;;;;;;21.77;14.52;;;;;;;16.89;82.54;99386.22;5090502;28;20059;-45
2023/10/02 00:12:01;;;;;;;49.47;24.20;;;;;;;17.15;82.33;99377.09;5091151;28;20043;-44
2023/10/02 00:14:34;;;;;;;27.20;12.82;;;;;;;17.21;80.97;99386.81;5091548;28;20389;-44
2023/10/02 00:17:03;;;;;;;22.55;10.85;;;;;;;17.22;80.44;99377.78;5091417;28;20040;-44
2023/10/02 00:19:49;;;;;;;21.23;12.88;;;;;;;17.25;80.54;99376.56;5091349;28;20035;-44
2023/10/02 00:22:42;;;;;;;24.05;11.27;;;;;;;17.36;80.64;99378.41;5094948;28;20481;-44
2023/10/02 00:25:22;;;;;;;26.85;14.85;;;;;;;17.53;79.46;99382.03;5095114;28;20032;-44
2023/10/02 00:27:51;;;;;;;66.80;57.38;;;;;;;17.88;79.55;99375.97;5095059;28;20039;-44
2023/10/02 00:30:23;;;;;;;73.15;65.25;;;;;;;18.34;78.34;99371.66;5095366;28;20425;-45
2023/10/02 00:32:50;;;;;;;45.15;34.47;;;;;;;18.71;76.47;99373.16;5094974;28;20077;-44
2023/10/02 00:35:17;;;;;;;28.38;15.52;;;;;;;18.85;75.20;99373.72;5093864;28;20027;-44
2023/10/02 00:38:01;;;;;;;18.60;11.18;;;;;;;19.00;74.20;99376.69;5094900;28;20031;-44
2023/10/02 00:40:31;;;;;;;28.55;15.25;;;;;;;19.07;73.67;99374.66;5093570;28;20059;-44
2023/10/02 00:45:49;;;;;;;15.20;9.55;;;;;;;19.04;72.46;99380.47;5095290;28;20100;-45
2023/10/02 00:48:25;;;;;;;22.33;10.13;;;;;;;18.71;72.30;99378.47;5094646;28;20024;-44
2023/10/02 00:50:59;;;;;;;16.90;9.95;;;;;;;18.45;72.93;99377.16;5094701;28;20020;-44
2023/10/02 00:53:38;;;;;;;17.60;10.77;;;;;;;18.24;73.18;99382.06;5094638;28;20069;-44
2023/10/02 00:56:19;;;;;;;25.30;18.08;;;;;;;18.02;74.39;99378.41;5094537;28;20088;-44
2023/10/02 00:59:00;;;;;;;17.23;10.93;;;;;;;18.17;75.00;99379.53;5094501;28;20073;-44
2023/10/02 01:01:27;;;;;;;18.10;11.60;;;;;;;18.17;74.32;99376.88;5094390;28;20028;-45
2023/10/02 01:04:09;;;;;;;26.02;18.85;;;;;;;18.41;74.90;99379.50;5093075;28;20402;-44
2023/10/02 01:06:54;;;;;;;21.05;12.32;;;;;;;18.92;73.92;99382.38;5093336;28;20024;-44
2023/10/02 01:09:25;;;;;;;20.63;13.02;;;;;;;19.07;72.47;99379.97;5094326;28;20043;-44
2023/10/02 01:11:57;;;;;;;22.95;13.40;;;;;;;19.28;72.04;99385.69;5093934;28;20047;-45
2023/10/02 01:17:12;;;;;;;20.58;11.18;;;;;;;19.06;70.53;99373.06;5094391;28;20043;-44
2023/10/02 01:20:00;;;;;;;22.50;12.70;;;;;;;18.76;70.95;99373.28;5092765;28;20491;-45
2023/10/02 01:22:27;;;;;;;33.65;19.92;;;;;;;18.66;72.11;99378.41;5093493;28;20047;-45
2023/10/02 01:25:15;;;;;;;22.33;13.60;;;;;;;18.92;72.21;99361.91;5094015;28;20021;-44
2023/10/02 01:27:47;;;;;;;18.40;11.73;;;;;;;18.86;71.21;99367.38;5093949;28;20073;-45
2023/10/02 01:30:16;;;;;;;19.90;11.02;;;;;;;18.83;71.65;99365.19;5093962;28;20024;-44
2023/10/02 01:33:16;;;;;;;17.70;10.77;;;;;;;19.03;71.85;99367.41;5091866;28;20038;-44
2023/10/02 01:35:56;;;;;;;22.25;12.45;;;;;;;19.36;71.42;99366.66;5093917;28;20030;-44
2023/10/02 01:38:27;;;;;;;21.80;11.10;;;;;;;19.79;70.16;99364.41;5092374;28;20035;-44
2023/10/02 01:41:14;;;;;;;21.60;12.50;;;;;;;19.98;68.86;99360.44;5093675;28;20028;-44
2023/10/02 01:43:49;;;;;;;18.98;10.98;;;;;;;19.82;68.14;99361.25;5093165;28;20050;-45
2023/10/02 01:46:18;;;;;;;16.00;10.05;;;;;;;19.75;68.48;99359.56;5093524;28;20031;-45
2023/10/02 01:48:44;;;;;;;30.52;11.00;;;;;;;19.95;68.57;99360.91;5109192;28;20074;-44
2023/10/02 01:51:25;;;;;;;29.17;16.88;;;;;;;20.33;67.83;99365.41;5093369;28;20016;-45
2023/10/02 01:53:57;;;;;;;22.80;11.20;;;;;;;20.78;65.99;99360.09;5093637;28;20043;-45
2023/10/02 01:56:29;;;;;;;29.38;13.00;;;;;;;21.12;64.54;99363.38;5091899;28;20441;-45
2023/10/02 01:59:08;;;;;;;23.35;10.45;;;;;;;21.27;63.67;99352.00;5093341;28;20048;-45
2023/10/02 02:01:46;;;;;;;24.25;11.65;;;;;;;21.33;63.16;99357.16;5093181;28;20028;-45
2023/10/02 02:04:16;;;;;;;25.98;11.52;;;;;;;21.33;62.36;99348.34;5093229;28;20081;-44
2023/10/02 02:06:54;;;;;;;16.15;10.15;;;;;;;20.93;62.75;99352.25;5093106;28;20095;-45
2023/10/02 02:09:25;;;;;;;26.73;11.18;;;;;;;20.83;63.20;99352.97;5093044;28;20508;-45
2023/10/02 02:12:05;;;;;;;18.35;9.35;;;;;;;20.81;63.25;99357.75;5092875;28;20048;-44
2023/10/02 02:14:40;;;;;;;22.80;12.80;;;;;;;20.67;63.30;99354.66;5092947;28;20024;-44
2023/10/02 02:17:10;;;;;;;18.55;10.63;;;;;;;20.61;63.54;99354.84;5093026;28;20024;-45
2023/10/02 02:19:49;;;;;;;18.33;10.57;;;;;;;20.57;63.73;99354.50;5091629;28;20115;-45
2023/10/02 02:22:26;;;;;;;21.27;14.65;;;;;;;20.33;63.35;99354.75;5091630;28;20040;-44
2023/10/02 02:24:58;;;;;;;18.33;10.27;;;;;;;19.84;64.52;99359.16;5092808;28;20115;-45
2023/10/02 02:27:24;;;;;;;22.02;13.10;;;;;;;19.49;66.13;99357.53;5092728;28;20085;-44
2023/10/02 02:29:54;;;;;;;19.45;11.75;;;;;;;19.48;67.14;99353.28;5091396;28;20047;-45
2023/10/02 02:32:36;;;;;;;17.88;9.95;;;;;;;19.47;67.10;99351.66;5092608;28;20551;-44
2023/10/02 02:35:05;;;;;;;15.20;9.57;;;;;;;19.30;67.30;99357.78;5092559;28;20020;-45
2023/10/02 02:37:32;;;;;;;19.45;10.15;;;;;;;19.32;68.01;99357.53;5092473;28;20024;-44
2023/10/02 02:42:51;;;;;;;15.38;9.52;;;;;;;19.40;67.14;99361.63;5091779;28;20042;-44
2023/10/02 02:45:31;;;;;;;15.02;9.73;;;;;;;19.11;68.17;99353.72;5091554;28;20024;-45
2023/10/02 02:48:03;;;;;;;23.40;10.43;;;;;;;19.18;68.92;99353.59;5091174;28;20476;-44
2023/10/02 02:50:33;;;;;;;20.83;10.52;;;;;;;19.33;68.60;99351.97;5092331;28;20507;-44
2023/10/02 02:53:21;;;;;;;17.65;10.82;;;;;;;19.41;68.41;99353.41;5091057;28;20032;-44
2023/10/02 02:58:44;;;;;;;19.67;9.38;;;;;;;18.97;68.17;99355.84;5092249;28;20028;-44
2023/10/02 03:01:24;;;;;;;17.85;9.98;;;;;;;18.59;69.38;99351.13;5074204;28;20027;-44
2023/10/02 03:04:11;;;;;;;18.50;11.23;;;;;;;18.23;70.68;99350.41;5092222;28;20024;-44
2023/10/02 03:06:37;;;;;;;19.05;11.25;;;;;;;17.98;71.70;99340.06;5092089;28;20028;-44
2023/10/02 03:09:06;;;;;;;15.25;9.35;;;;;;;17.98;72.60;99348.81;5090790;28;20393;-44
2023/10/02 03:11:32;;;;;;;18.75;12.48;;;;;;;17.89;72.65;99351.03;5091805;28;20126;-45
2023/10/02 03:14:12;;;;;;;17.48;10.45;;;;;;;17.82;73.12;99354.81;5090708;28;20046;-44
2023/10/02 03:16:39;;;;;;;17.95;10.75;;;;;;;17.69;73.51;99343.38;5091999;28;20028;-44
2023/10/02 03:19:07;;;;;;;19.40;10.20;;;;;;;17.64;74.54;99355.72;5091979;28;20097;-44
2023/10/02 03:21:37;;;;;;;22.02;10.27;;;;;;;17.88;75.08;99351.25;5091770;28;20032;-44
2023/10/02 03:24:04;;;;;;;19.20;10.10;;;;;;;18.22;74.22;99340.84;5091847;28;20032;-44
2023/10/02 03:29:04;;;;;;;18.27;10.00;;;;;;;18.62;73.13;99340.84;5091868;28;20055;-45
2023/10/02 03:31:43;;;;;;;18.65;10.07;;;;;;;18.73;71.90;99347.97;5091749;28;20529;-44
2023/10/02 03:39:59;;;;;;;17.08;9.85;;;;;;;18.97;70.13;99334.59;5091810;28;20024;-44
2023/10/02 03:42:26;;;;;;;16.08;10.00;;;;;;;18.66;70.15;99331.34;5091635;28;20036;-45
2023/10/02 03:44:59;;;;;;;16.95;10.20;;;;;;;18.32;70.63;99327.75;5090666;28;20028;-44
2023/10/02 03:47:30;;;;;;;18.77;10.05;;;;;;;17.94;71.78;99334.41;5091961;28;20566;-44
2023/10/02 03:50:00;;;;;;;18.13;11.00;;;;;;;17.65;73.75;99320.19;5091739;28;20153;-44
2023/10/02 03:52:30;;;;;;;17.77;10.90;;;;;;;17.64;74.21;99332.63;5091643;28;20032;-44
2023/10/02 03:54:57;;;;;;;18.75;10.48;;;;;;;17.47;74.43;99334.38;5091948;28;20016;-44
2023/10/02 04:00:27;;;;;;;18.00;10.50;;;;;;;17.12;76.22;99332.44;5095925;28;20107;-44
2023/10/02 04:02:56;;;;;;;19.80;10.27;;;;;;;17.26;76.52;99325.09;5095637;28;20031;-44
2023/10/02 04:05:34;;;;;;;18.83;9.93;;;;;;;17.32;76.52;99326.84;5095362;28;20024;-44
2023/10/02 04:10:55;;;;;;;16.67;9.52;;;;;;;17.25;76.38;99329.59;5095244;28;20382;-44
2023/10/02 04:13:23;;;;;;;;;;;;;;;17.30;76.55;99331.56;5095815;28;20028;-44
2023/10/02 04:16:28;;;;;;;29.08;11.57;;;;;;;17.48;77.10;99331.47;5095119;28;19920;-44
2023/10/02 04:18:58;;;;;;;20.27;10.10;;;;;;;17.70;76.07;99318.44;5095129;28;20036;-44
2023/10/02 04:21:25;;;;;;;20.58;10.70;;;;;;;17.70;75.36;99323.75;5095144;28;20110;-44
2023/10/02 04:23:56;;;;;;;19.23;10.02;;;;;;;17.84;75.69;99324.34;5093875;28;20174;-44
2023/10/02 04:26:24;;;;;;;20.45;12.07;;;;;;;18.18;75.65;99316.56;5095122;28;20107;-45
2023/10/02 04:28:55;;;;;;;16.70;10.30;;;;;;;18.54;73.52;99312.78;5095341;28;20074;-44
2023/10/02 04:31:34;;;;;;;23.48;9.95;;;;;;;18.59;72.42;99311.25;5094975;28;20111;-44
2023/10/02 04:34:23;;;;;;;19.45;10.70;;;;;;;18.95;72.09;99318.06;5095074;28;20028;-44
2023/10/02 04:36:50;;;;;;;24.52;11.10;;;;;;;18.84;71.19;99319.75;5094817;28;20034;-44
2023/10/02 04:40:23;;;;;;;20.35;10.40;;;;;;;18.87;70.99;99313.13;5095072;28;20409;-44
2023/10/02 04:42:12;;;;;;;32.67;11.52;;;;;;;18.93;70.91;99318.31;5085322;28;20040;-44
2023/10/02 04:44:46;;;;;;;22.65;11.18;;;;;;;18.97;70.59;99315.97;5094747;28;20035;-44
2023/10/02 04:47:19;;;;;;;21.35;10.90;;;;;;;19.06;70.61;99311.06;5094719;28;20016;-44
2023/10/02 04:55:22;;;;;;;20.60;11.57;;;;;;;19.09;69.00;99318.56;5094685;28;20084;-44
2023/10/02 04:57:50;;;;;;;26.65;11.52;;;;;;;18.95;69.69;99313.56;5094518;28;20032;-44
2023/10/02 05:00:27;;;;;;;22.88;10.55;;;;;;;18.91;69.52;99314.25;5093193;28;20028;-44
2023/10/02 05:03:09;;;;;;;21.17;12.15;;;;;;;18.73;69.88;99315.22;5094654;28;20398;-45
2023/10/02 05:05:47;;;;;;;30.40;11.57;;;;;;;18.86;70.17;99307.00;5094362;28;20024;-45
2023/10/02 05:11:08;;;;;;;29.45;9.85;;;;;;;18.69;69.65;99322.91;5097085;28;20078;-45
2023/10/02 05:13:59;;;;;;;29.98;10.85;;;;;;;18.53;70.42;99318.31;5092928;28;20044;-44
2023/10/02 05:16:46;;;;;;;35.25;12.48;;;;;;;18.52;71.04;99332.66;5094117;28;20024;-44
2023/10/02 05:19:15;;;;;;;25.48;11.43;;;;;;;18.87;71.08;99321.91;5094158;28;20110;-44
2023/10/02 05:21:50;;;;;;;26.48;11.00;;;;;;;19.09;70.24;99316.69;5092710;28;20413;-44
2023/10/02 05:24:19;;;;;;;23.60;11.20;;;;;;;19.15;69.85;99322.91;5092796;28;20027;-45
2023/10/02 05:26:46;;;;;;;25.27;10.88;;;;;;;19.39;69.97;99328.09;5093941;28;20051;-45
2023/10/02 05:29:17;;;;;;;24.88;13.57;;;;;;;19.31;68.25;99329.31;5093892;28;20020;-44
2023/10/02 05:31:49;;;;;;;17.48;10.88;;;;;;;19.18;67.97;99327.78;5093900;28;20024;-44
2023/10/02 05:34:21;;;;;;;33.35;11.55;;;;;;;18.87;68.82;99329.88;5093612;28;20032;-44
2023/10/02 05:37:31;;;;;;;23.58;10.18;;;;;;;18.97;69.37;99326.59;5109093;28;20020;-44
2023/10/02 05:39:50;;;;;;;19.42;10.30;;;;;;;18.69;68.83;99322.91;5089576;28;20127;-44
2023/10/02 05:42:16;;;;;;;16.58;9.55;;;;;;;18.37;69.47;99322.53;5092267;28;20035;-44
2023/10/02 05:44:43;;;;;;;23.48;11.02;;;;;;;18.08;70.50;99327.78;5093634;28;20028;-44
2023/10/02 05:47:11;;;;;;;22.92;11.55;;;;;;;18.09;72.34;99332.09;5093532;28;20023;-44
2023/10/02 05:49:47;;;;;;;29.40;11.15;;;;;;;18.25;72.15;99337.69;5093577;28;20024;-44
2023/10/02 05:52:18;;;;;;;24.90;10.93;;;;;;;18.56;71.25;99331.94;5092357;28;20028;-44
2023/10/02 05:54:49;;;;;;;21.08;10.23;;;;;;;18.53;70.55;99334.25;5093389;28;20032;-44
2023/10/02 05:57:17;;;;;;;28.67;10.73;;;;;;;18.49;71.03;99339.28;5093532;28;20078;-45
2023/10/02 05:59:54;;;;;;;33.05;12.57;;;;;;;19.07;71.41;99345.41;5093338;28;20107;-44
2023/10/02 06:02:22;;;;;;;40.13;13.05;;;;;;;19.99;68.93;99346.06;5093332;28;20042;-44
2023/10/02 06:04:52;;;;;;;43.00;12.02;;;;;;;21.08;65.40;99344.38;5093262;28;20039;-44
2023/10/02 06:10:09;;;;;;;37.47;12.35;;;;;;;22.52;59.38;99342.66;5093410;28;20507;-44
2023/10/02 06:12:45;;;;;;;49.58;12.93;;;;;;;23.39;56.64;99342.81;5092801;28;20043;-45
2023/10/02 06:17:58;;;;;;;33.03;12.15;;;;;;;24.58;51.98;99346.84;5093180;28;20400;-45
2023/10/02 06:20:24;;;;;;;26.25;11.20;;;;;;;24.90;50.82;99354.44;5091619;28;20032;-45
2023/10/02 06:23:03;;;;;;;38.92;13.63;;;;;;;25.40;49.71;99342.81;5091645;28;20069;-45
2023/10/02 06:25:29;;;;;;;27.02;12.10;;;;;;;25.80;48.06;99348.91;5092862;28;20028;-45
2023/10/02 06:28:19;;;;;;;29.40;11.13;;;;;;;26.16;47.07;99338.59;5092783;28;20032;-45
2023/10/02 06:30:43;;;;;;;33.28;11.57;;;;;;;26.49;45.64;99338.69;5092550;28;20514;-45
2023/10/02 06:33:10;;;;;;;25.52;12.02;;;;;;;26.18;45.69;99338.28;5092614;28;20052;-45
2023/10/02 06:35:44;;;;;;;27.73;11.40;;;;;;;25.67;46.69;99340.41;5092546;28;20012;-45
2023/10/02 06:38:16;;;;;;;30.73;13.15;;;;;;;25.23;47.78;99348.59;5092655;28;20032;-45
2023/10/02 06:40:56;;;;;;;20.83;10.52;;;;;;;24.94;48.20;99348.53;5091382;28;20032;-45
2023/10/02 06:43:29;;;;;;;32.10;11.77;;;;;;;24.51;48.98;99357.09;5092470;28;20471;-44
2023/10/02 06:46:13;;;;;;;19.23;11.00;;;;;;;24.11;49.79;99359.63;5092478;28;20486;-45
2023/10/02 06:48:43;;;;;;;21.50;11.57;;;;;;;24.28;50.11;99350.44;5092483;28;20028;-45
2023/10/02 06:51:14;;;;;;;22.90;11.25;;;;;;;24.88;49.20;99367.34;5092667;28;20016;-45
2023/10/02 06:53:40;;;;;;;23.90;11.85;;;;;;;25.69;47.33;99367.81;5090992;28;20060;-45
2023/10/02 06:56:11;;;;;;;25.83;11.00;;;;;;;26.47;45.04;99362.41;5091238;28;20038;-45
2023/10/02 06:58:52;;;;;;;29.17;11.75;;;;;;;26.94;43.96;99360.72;5092269;28;20490;-45
2023/10/02 07:01:18;;;;;;;15.20;9.90;;;;;;;26.87;42.86;99362.97;5092204;28;20057;-45
2023/10/02 07:03:51;;;;;;;19.38;9.43;;;;;;;26.37;43.23;99367.94;5092113;28;20517;-45
2023/10/02 07:06:21;;;;;;;19.48;10.45;;;;;;;25.86;44.92;99370.06;5092155;28;20031;-45
2023/10/02 07:09:10;;;;;;;16.20;9.68;;;;;;;26.16;44.77;99359.28;5092110;28;20028;-45
2023/10/02 07:11:42;;;;;;;18.88;9.45;;;;;;;26.48;43.79;99362.13;5091747;28;20048;-45
2023/10/02 07:14:09;;;;;;;20.80;12.50;;;;;;;26.54;43.58;99362.88;5092012;28;20022;-45
2023/10/02 07:16:36;;;;;;;18.05;11.15;;;;;;;26.46;43.58;99360.81;5091909;28;20055;-45
2023/10/02 07:19:04;;;;;;;14.55;9.23;;;;;;;26.97;42.69;99360.13;5091957;28;20055;-45
2023/10/02 07:21:30;;;;;;;17.63;9.38;;;;;;;26.97;41.87;99365.53;5092192;28;20028;-45
2023/10/02 07:24:25;;;;;;;15.05;9.77;;;;;;;26.85;42.74;99362.47;5091901;28;20023;-45
2023/10/02 07:26:51;;;;;;;19.70;10.48;;;;;;;27.12;42.56;99361.78;5091898;28;20031;-45
2023/10/02 07:29:19;;;;;;;16.60;9.57;;;;;;;27.50;41.55;99361.75;5090595;28;20063;-45
2023/10/02 07:31:45;;;;;;;26.00;11.57;;;;;;;27.82;41.43;99358.19;5091277;28;20099;-45
2023/10/02 07:34:12;;;;;;;24.58;10.18;;;;;;;28.18;40.25;99356.75;5090453;28;20025;-45
2023/10/02 07:36:44;;;;;;;16.25;10.38;;;;;;;28.52;39.47;99363.66;5090415;28;20035;-45
2023/10/02 07:42:01;;;;;;;19.17;9.75;;;;;;;28.21;40.11;99364.25;5091975;28;20035;-45
2023/10/02 07:44:39;;;;;;;19.13;9.75;;;;;;;28.37;39.89;99357.44;5073984;28;20405;-45
2023/10/02 07:47:17;;;;;;;20.48;10.23;;;;;;;29.03;38.45;99357.88;5090377;28;20040;-45
2023/10/02 07:49:47;;;;;;;19.63;10.18;;;;;;;28.82;38.69;99352.16;5091670;28;20374;-45
2023/10/02 07:52:26;;;;;;;20.40;10.20;;;;;;;29.25;38.64;99359.03;5091500;28;20089;-45
2023/10/02 07:55:01;;;;;;;18.35;10.20;;;;;;;29.36;38.24;99357.69;5091565;28;20507;-45
2023/10/02 07:57:30;;;;;;;28.17;9.52;;;;;;;30.02;37.41;99355.16;5091713;28;20485;-46
2023/10/02 08:00:05;;;;;;;23.85;10.20;;;;;;;30.65;36.51;99355.81;5091579;28;20020;-45
2023/10/02 08:02:33;;;;;;;19.13;10.77;;;;;;;31.37;35.29;99350.03;5090392;28;20024;-45
2023/10/02 08:05:03;;;;;;;19.98;10.43;;;;;;;31.58;34.14;99345.53;5091536;28;20428;-46
2023/10/02 08:07:29;;;;;;;27.88;10.85;;;;;;;31.82;34.32;99344.97;5091837;28;20028;-46
2023/10/02 08:09:57;;;;;;;38.00;11.48;;;;;;;32.24;34.22;99349.75;5090170;28;20020;-45
2023/10/02 08:12:30;;;;;;;16.77;10.35;;;;;;;32.56;32.86;99347.47;5089901;28;20047;-46
2023/10/02 08:14:59;;;;;;;18.38;9.38;;;;;;;32.76;32.59;99352.13;5091399;28;20478;-46
2023/10/02 08:17:59;;;;;;;12.40;8.45;;;;;;;32.91;31.69;99350.72;5091409;28;20490;-46
2023/10/02 08:20:19;;;;;;;23.15;9.80;;;;;;;33.53;31.71;99351.72;5091206;28;20378;-45
2023/10/02 08:22:44;;;;;;;20.83;8.82;;;;;;;33.82;30.32;99358.13;5091361;28;20024;-46
2023/10/02 08:25:14;;;;;;;21.73;9.60;;;;;;;33.05;31.44;99347.72;5091384;28;20043;-45
2023/10/02 08:27:44;;;;;;;18.15;8.55;;;;;;;32.20;32.29;99348.81;5091299;28;20020;-46
2023/10/02 08:30:27;;;;;;;18.67;8.32;;;;;;;31.78;32.42;99351.38;5091365;28;20038;-45
2023/10/02 08:32:55;;;;;;;31.52;23.52;;;;;;;31.22;30.52;99345.91;5091262;28;20032;-45
2023/10/02 08:35:21;;;;;;;17.70;6.88;;;;;;;30.71;31.75;99352.91;5091127;28;20032;-45
2023/10/02 08:37:54;;;;;;;9.38;5.30;;;;;;;31.67;30.86;99345.50;5091263;28;20027;-45
2023/10/02 08:40:20;;;;;;;8.85;5.30;;;;;;;32.86;29.39;99352.84;5090044;28;20054;-45
2023/10/02 08:42:52;;;;;;;12.10;5.82;;;;;;;33.75;27.93;99352.47;5092371;28;20024;-45
2023/10/02 08:45:21;;;;;;;10.52;4.90;;;;;;;33.83;26.72;99349.63;5094791;28;20040;-45
2023/10/02 08:47:48;;;;;;;9.73;4.85;;;;;;;33.59;26.73;99358.53;5093389;28;20104;-46
2023/10/02 08:50:15;;;;;;;14.70;5.55;;;;;;;34.02;26.94;99353.72;5094642;28;20517;-46
2023/10/02 08:52:48;;;;;;;9.27;5.28;;;;;;;34.47;26.05;99350.06;5094591;28;20024;-45
2023/10/02 08:58:15;;;;;;;16.38;6.55;;;;;;;34.17;26.17;99350.34;5094606;28;20073;-46
2023/10/02 09:03:45;;;;;;;11.17;5.33;;;;;;;34.77;25.21;99345.13;5094496;28;20024;-45
2023/10/02 09:06:32;;;;;;;13.02;4.72;;;;;;;35.00;25.01;99339.91;5093106;28;20339;-46
2023/10/02 09:09:21;;;;;;;11.80;5.38;;;;;;;35.13;25.38;99354.28;5094250;28;20032;-46
2023/10/02 09:11:52;;;;;;;9.27;4.82;;;;;;;34.65;25.17;99344.34;5094071;28;20564;-46
2023/10/02 09:14:22;;;;;;;7.05;4.50;;;;;;;34.24;26.05;99344.31;5094252;28;20024;-46
2023/10/02 09:17:07;;;;;;;6.63;5.10;;;;;;;33.51;27.29;99339.59;5092830;28;20501;-45
2023/10/02 09:19:48;;;;;;;9.75;4.68;;;;;;;33.04;28.06;99332.50;5094194;28;20562;-45
2023/10/02 09:22:16;;;;;;;11.10;5.47;;;;;;;33.94;26.50;99338.28;5094102;28;20028;-45
2023/10/02 09:24:55;;;;;;;11.90;5.88;;;;;;;34.18;26.24;99343.75;5093914;28;20056;-46
2023/10/02 09:27:28;;;;;;;11.95;5.07;;;;;;;34.37;26.10;99340.44;5092699;28;20118;-46
2023/10/02 09:32:52;;;;;;;9.10;5.05;;;;;;;33.56;26.93;99353.75;5094224;28;20401;-45
2023/10/02 09:35:40;;;;;;;7.90;4.32;;;;;;;33.04;27.74;99340.66;5093805;28;20028;-46
2023/10/02 09:38:12;;;;;;;9.65;4.82;;;;;;;32.86;28.43;99337.34;5092572;28;20028;-46
2023/10/02 09:40:54;;;;;;;11.55;5.60;;;;;;;32.70;27.74;99328.19;5093677;28;20518;-46
2023/10/02 09:43:31;;;;;;;11.27;5.10;;;;;;;32.58;28.77;99335.16;5092529;28;20032;-46
2023/10/02 09:46:15;;;;;;;27.55;6.15;;;;;;;32.82;28.08;99317.34;5093905;28;20024;-46
2023/10/02 09:49:03;;;;;;;12.27;5.30;;;;;;;32.97;28.84;99318.69;5092467;28;20032;-46
2023/10/02 09:52:15;;;;;;;10.38;5.05;;;;;;;33.25;27.55;99329.78;5093448;28;20028;-46
2023/10/02 09:55:03;;;;;;;7.47;5.15;;;;;;;32.89;28.23;99311.41;5092912;28;20035;-46
2023/10/02 09:57:36;;;;;;;11.48;5.43;;;;;;;32.92;28.21;99316.97;5093396;28;20055;-46
2023/10/02 10:03:23;;;;;;;11.23;5.47;;;;;;;32.64;28.62;99317.53;5093307;28;20038;-46
2023/10/02 10:06:08;;;;;;;10.05;5.47;;;;;;;32.63;28.70;99315.91;5091838;28;20028;-45
2023/10/02 10:09:50;;;;;;;12.20;5.43;;;;;;;33.24;27.89;99306.41;5093121;28;20020;-45
2023/10/02 10:11:44;;;;;;;10.85;5.95;;;;;;;33.79;27.52;99299.72;5088521;28;20131;-45
2023/10/02 10:14:37;;;;;;;9.68;5.60;;;;;;;34.66;27.28;99297.69;5091791;28;20031;-46
2023/10/02 10:17:13;;;;;;;10.18;5.50;;;;;;;35.31;26.08;99289.28;5091718;28;20050;-46
2023/10/02 10:20:18;;;;;;;7.60;4.75;;;;;;;35.76;25.03;99287.28;5093028;28;20035;-46
2023/10/02 10:23:06;;;;;;;13.23;5.97;;;;;;;35.26;25.40;99286.84;5075191;28;20040;-46
2023/10/02 10:25:33;;;;;;;7.85;5.03;;;;;;;34.59;25.42;99294.72;5092716;28;20068;-46
2023/10/02 10:30:26;;;;;;;6.28;3.58;;;;;;;33.29;26.65;99289.09;5092731;28;20025;-46
2023/10/02 10:33:25;;;;;;;7.85;5.40;;;;;;;32.77;27.87;99283.03;5092697;28;20524;-46
2023/10/02 10:35:52;;;;;;;7.15;4.57;;;;;;;32.62;27.73;99281.72;5071792;28;20051;-45
2023/10/02 10:38:28;;;;;;;10.35;4.78;;;;;;;32.40;28.25;99284.75;5092707;28;20028;-46
2023/10/02 10:41:01;;;;;;;11.02;5.15;;;;;;;32.62;28.37;99287.16;5092614;28;20024;-46
2023/10/02 10:43:43;;;;;;;9.77;5.82;;;;;;;33.12;27.41;99274.56;5091100;28;20494;-46
2023/10/02 10:46:29;;;;;;;11.32;5.35;;;;;;;33.89;26.41;99273.97;5091524;28;20024;-46
2023/10/02 10:48:59;;;;;;;22.40;8.27;;;;;;;34.34;26.62;99277.66;5092443;28;20031;-46
2023/10/02 10:51:28;;;;;;;6.40;5.15;;;;;;;34.76;25.30;99275.38;5092679;28;20028;-46
2023/10/02 10:54:12;;;;;;;14.20;6.97;;;;;;;34.95;25.25;99272.00;5092409;28;20024;-45
2023/10/02 10:56:44;;;;;;;7.65;5.85;;;;;;;35.28;25.08;99279.09;5092195;28;20477;-46
2023/10/02 10:59:24;;;;;;;8.27;4.97;;;;;;;35.44;24.42;99264.63;5092362;28;20554;-46
2023/10/02 11:04:51;;;;;;;17.95;6.90;;;;;;;35.01;25.38;99265.13;5091782;28;20031;-47
2023/10/02 11:07:25;;;;;;;9.63;5.30;;;;;;;35.74;24.74;99267.75;5092105;28;20023;-46
2023/10/02 11:10:20;;;;;;;11.48;5.70;;;;;;;36.31;24.34;99266.25;5092173;28;20024;-46
2023/10/02 11:12:57;;;;;;;17.63;6.15;;;;;;;36.81;23.92;99258.28;5091891;28;20044;-47
2023/10/02 11:15:57;;;;;;;10.13;5.13;;;;;;;36.89;22.66;99261.94;5091946;28;20025;-48
2023/10/02 11:18:19;;;;;;;22.42;10.88;;;;;;;36.47;24.14;99249.78;5091560;28;20566;-48
2023/10/02 11:20:57;;;;;;;15.07;10.75;;;;;;;36.52;23.51;99257.72;5091931;28;20443;-48
2023/10/02 11:23:41;;;;;;;8.18;5.18;;;;;;;36.15;23.22;99257.34;5092020;28;20020;-48
2023/10/02 11:26:12;;;;;;;7.95;4.43;;;;;;;35.32;24.59;99260.84;5092020;28;20029;-48
2023/10/02 11:28:40;;;;;;;7.45;4.68;;;;;;;35.08;24.91;99256.31;5091887;28;20066;-46
2023/10/02 11:31:32;;;;;;;6.63;4.97;;;;;;;34.82;25.36;99240.47;5092119;28;20043;-46
2023/10/02 11:34:08;;;;;;;8.45;5.07;;;;;;;34.81;25.83;99242.41;5092138;28;20397;-46
2023/10/02 11:36:37;;;;;;;13.07;7.22;;;;;;;35.13;25.99;99239.69;5091708;28;20024;-46
2023/10/02 11:39:16;;;;;;;7.63;5.03;;;;;;;35.60;25.18;99227.19;5090680;28;20107;-46
2023/10/02 11:41:46;;;;;;;8.52;4.90;;;;;;;35.89;24.29;99230.59;5091808;28;20024;-46
2023/10/02 11:44:13;;;;;;;44.67;7.78;;;;;;;35.68;25.00;99233.63;5091823;28;20028;-46
2023/10/02 11:46:40;;;;;;;43.63;7.53;;;;;;;35.62;24.69;99227.63;5091543;28;20047;-46
2023/10/02 11:49:07;;;;;;;16.42;4.93;;;;;;;35.56;24.51;99242.72;5091648;28;20067;-46
2023/10/02 11:51:33;;;;;;;10.25;4.55;;;;;;;34.99;24.58;99239.31;5091647;28;20021;-46
2023/10/02 11:54:01;;;;;;;6.72;4.35;;;;;;;34.79;25.19;99227.50;5091688;28;20107;-46
2023/10/02 11:56:27;;;;;;;8.32;4.78;;;;;;;35.09;24.61;99219.69;5091559;28;20016;-46
2023/10/02 11:58:54;;;;;;;21.80;5.50;;;;;;;34.56;24.48;99227.25;5091583;28;20401;-46
2023/10/02 12:01:23;;;;;;;16.08;4.97;;;;;;;33.82;25.01;99211.88;5091579;28;20565;-46
2023/10/02 12:03:49;;;;;;;23.83;6.45;;;;;;;33.64;26.08;99218.72;5091602;28;20032;-46
2023/10/02 12:06:16;;;;;;;22.95;6.55;;;;;;;33.83;25.70;99218.16;5073437;28;20035;-46
2023/10/02 12:08:44;;;;;;;8.82;4.32;;;;;;;34.03;25.50;99210.97;5090191;28;20108;-46
2023/10/02 12:11:13;;;;;;;9.65;4.65;;;;;;;33.99;25.30;99210.84;5089857;28;20039;-46
2023/10/02 12:13:44;;;;;;;7.97;4.50;;;;;;;34.03;25.60;99209.03;5091518;28;20031;-46
2023/10/02 12:16:13;;;;;;;8.20;4.38;;;;;;;34.09;25.66;99206.03;5091670;28;20539;-46
2023/10/02 12:18:41;;;;;;;8.57;4.60;;;;;;;33.95;25.42;99198.28;5095255;28;20035;-46
2023/10/02 12:21:14;;;;;;;6.15;5.20;;;;;;;34.00;26.11;99187.13;5095175;28;20494;-46
2023/10/02 12:23:43;;;;;;;10.70;4.80;;;;;;;34.32;25.43;99187.28;5095297;28;20031;-46
2023/10/02 12:26:16;;;;;;;12.35;5.95;;;;;;;34.52;25.75;99189.00;5093847;28;20028;-46
2023/10/02 12:28:43;;;;;;;17.15;4.68;;;;;;;34.74;25.08;99190.38;5095082;28;20137;-46
2023/10/02 12:31:14;;;;;;;29.67;6.07;;;;;;;34.46;24.27;99184.16;5095295;28;20509;-46
2023/10/02 12:33:41;;;;;;;10.27;5.00;;;;;;;33.97;24.51;99191.34;5094909;28;20461;-46
2023/10/02 12:36:15;;;;;;;6.68;4.90;;;;;;;33.58;24.75;99195.56;5094957;28;20020;-46
2023/10/02 12:38:42;;;;;;;8.48;4.65;;;;;;;33.25;24.92;99185.59;5095229;28;20165;-46
2023/10/02 12:41:15;;;;;;;7.80;4.82;;;;;;;32.97;25.26;99186.22;5094872;28;20028;-46
2023/10/02 12:43:46;;;;;;;6.18;4.15;;;;;;;32.76;25.77;99178.16;5094863;28;20039;-46
2023/10/02 12:46:15;;;;;;;15.65;5.70;;;;;;;32.76;26.76;99180.88;5094689;28;20085;-46
2023/10/02 12:48:44;;;;;;;7.65;4.22;;;;;;;32.94;26.47;99175.22;5094653;28;20024;-46
2023/10/02 12:51:10;;;;;;;8.50;4.38;;;;;;;32.88;26.55;99174.66;5094651;28;20054;-46
2023/10/02 12:53:38;;;;;;;13.88;5.40;;;;;;;32.67;26.75;99161.13;5093300;28;20067;-46